Time;durP1;ratioP1;P1;durP2;ratioP2;P2;SDS_P1;SDS_P2;PMS_P1;PMS_P2;Temp;Humidity;BMP_temperature;BMP_pressure;BME280_temperature;BME280_humidity;BME280_pressure;Samples;Min_cycle;Max_cycle;Signal;HPM_P1;HPM_P2
2021/05/25 00:00:32;;;;;;;0.93;0.67;;;9.60;99.90;;;;;;5053274;27;20676;-95
2021/05/25 00:03:08;;;;;;;1.60;0.97;;;9.50;99.90;;;;;;5048727;27;20662;-94
2021/05/25 00:05:38;;;;;;;1.70;0.80;;;9.50;99.90;;;;;;5063733;27;20662;-94
2021/05/25 00:08:08;;;;;;;2.77;0.93;;;9.60;99.90;;;;;;5059963;27;20656;-94
2021/05/25 00:10:43;;;;;;;2.57;1.17;;;9.60;99.90;;;;;;5045174;27;20650;-94
2021/05/25 00:13:11;;;;;;;3.03;0.90;;;9.50;99.90;;;;;;5049118;27;21274;-94
2021/05/25 00:15:38;;;;;;;2.50;0.60;;;9.40;99.90;;;;;;5048019;27;20642;-92
2021/05/25 00:18:05;;;;;;;1.87;0.80;;;9.40;99.90;;;;;;5041421;27;20695;-92
2021/05/25 00:20:32;;;;;;;1.70;0.80;;;9.40;99.90;;;;;;5063337;27;20655;-93
2021/05/25 00:22:59;;;;;;;1.83;0.80;;;9.40;99.90;;;;;;5064211;27;20650;-91
2021/05/25 00:25:27;;;;;;;2.10;0.60;;;9.40;99.90;;;;;;5054635;27;20663;-93
2021/05/25 00:27:55;;;;;;;1.03;0.57;;;9.40;99.90;;;;;;5052092;27;20627;-93
2021/05/25 00:30:22;;;;;;;1.90;1.07;;;9.40;99.90;;;;;;5073096;27;20725;-93
2021/05/25 00:32:52;;;;;;;1.00;0.83;;;9.40;99.90;;;;;;5060576;27;20669;-93
2021/05/25 00:35:19;;;;;;;2.73;0.70;;;9.40;99.90;;;;;;5065022;28;20666;-93
2021/05/25 00:37:45;;;;;;;2.07;1.47;;;9.30;99.90;;;;;;5044923;28;20661;-93
2021/05/25 00:40:15;;;;;;;0.80;0.80;;;9.30;99.90;;;;;;5061427;23;20726;-93
2021/05/25 00:42:45;;;;;;;1.13;0.87;;;9.20;99.90;;;;;;5079175;28;20679;-94
2021/05/25 00:45:19;;;;;;;2.40;0.97;;;9.30;99.90;;;;;;5057398;28;20663;-95
2021/05/25 00:47:46;;;;;;;2.93;1.13;;;9.30;99.90;;;;;;5068942;28;20693;-94
2021/05/25 00:50:17;;;;;;;3.17;0.80;;;9.30;99.90;;;;;;5075447;28;20675;-94
2021/05/25 00:52:50;;;;;;;1.57;0.80;;;9.30;99.90;;;;;;5097780;28;20678;-93
2021/05/25 00:55:24;;;;;;;1.83;0.90;;;9.30;99.90;;;;;;5093407;28;21325;-94
2021/05/25 00:57:53;;;;;;;1.50;0.80;;;9.30;99.90;;;;;;5093600;28;20625;-94
2021/05/25 01:00:23;;;;;;;1.27;0.90;;;9.30;99.90;;;;;;5086766;28;20665;-95
2021/05/25 01:02:57;;;;;;;1.40;0.97;;;9.20;99.90;;;;;;5083795;28;20974;-94
2021/05/25 01:05:26;;;;;;;3.70;0.83;;;9.30;99.90;;;;;;5083515;28;20628;-95
2021/05/25 01:07:58;;;;;;;1.00;0.90;;;9.20;99.90;;;;;;5062200;28;20653;-94
2021/05/25 01:10:29;;;;;;;1.80;1.00;;;9.20;99.90;;;;;;5078877;28;20656;-92
2021/05/25 01:13:01;;;;;;;2.97;1.20;;;9.20;99.90;;;;;;5069578;28;20754;-92
2021/05/25 01:15:29;;;;;;;1.83;1.40;;;9.10;99.90;;;;;;5066035;28;20639;-90
2021/05/25 01:17:57;;;;;;;2.23;1.40;;;9.10;99.90;;;;;;5055376;28;20720;-92
2021/05/25 01:20:27;;;;;;;2.50;0.93;;;9.00;99.90;;;;;;5074293;28;20676;-93
2021/05/25 01:22:55;;;;;;;2.40;1.00;;;8.90;99.90;;;;;;5077081;28;20685;-93
2021/05/25 01:25:23;;;;;;;1.23;0.80;;;8.90;99.90;;;;;;5079641;28;20624;-94
2021/05/25 01:27:57;;;;;;;3.43;1.77;;;8.90;99.90;;;;;;5072819;28;20701;-93
2021/05/25 01:30:29;;;;;;;7.20;1.27;;;8.90;99.90;;;;;;5073837;28;20725;-94
2021/05/25 01:32:57;;;;;;;3.17;1.23;;;8.80;99.90;;;;;;5071868;28;20638;-95
2021/05/25 01:35:26;;;;;;;1.30;1.00;;;8.80;99.90;;;;;;5080227;28;20636;-96
2021/05/25 01:38:04;;;;;;;2.77;0.80;;;8.70;99.90;;;;;;5079688;28;20732;-93
2021/05/25 01:40:32;;;;;;;1.70;0.90;;;8.70;99.90;;;;;;5087515;28;20716;-93
2021/05/25 01:42:59;;;;;;;3.87;1.20;;;8.70;99.90;;;;;;5084996;28;20676;-93
2021/05/25 01:45:29;;;;;;;1.57;0.73;;;8.60;99.90;;;;;;5069504;28;21193;-92
2021/05/25 01:48:00;;;;;;;1.07;0.80;;;8.60;99.90;;;;;;5067147;28;20639;-94
2021/05/25 01:50:29;;;;;;;2.30;0.93;;;8.60;99.90;;;;;;5081037;28;20676;-94
2021/05/25 01:53:02;;;;;;;1.37;1.10;;;8.50;99.90;;;;;;5078472;28;20624;-92
2021/05/25 01:55:31;;;;;;;1.10;0.83;;;8.50;99.90;;;;;;5073708;28;21305;-93
2021/05/25 01:58:00;;;;;;;1.27;1.10;;;8.40;99.90;;;;;;5053305;28;21601;-90
2021/05/25 02:00:26;;;;;;;1.60;1.50;;;8.40;99.90;;;;;;5065516;28;21260;-92
2021/05/25 02:02:53;;;;;;;1.47;1.20;;;8.30;99.90;;;;;;5068762;28;21221;-92
2021/05/25 02:05:20;;;;;;;1.47;0.90;;;8.20;99.90;;;;;;5077146;28;20633;-94
2021/05/25 02:07:48;;;;;;;1.33;0.90;;;8.20;99.90;;;;;;5079568;28;21241;-92
2021/05/25 02:10:27;;;;;;;2.13;0.93;;;8.20;99.90;;;;;;5068755;28;21187;-92
2021/05/25 02:12:55;;;;;;;1.90;0.90;;;8.20;99.90;;;;;;5065071;28;20704;-93
2021/05/25 02:15:21;;;;;;;1.50;0.90;;;8.20;99.90;;;;;;5064622;28;20685;-92
2021/05/25 02:17:48;;;;;;;3.27;1.40;;;8.20;99.90;;;;;;5051089;28;20646;-92
2021/05/25 02:20:17;;;;;;;2.47;1.10;;;8.20;99.90;;;;;;5068894;28;20625;-89
2021/05/25 02:22:44;;;;;;;2.17;1.30;;;8.20;99.90;;;;;;5062565;28;20680;-91
2021/05/25 02:25:10;;;;;;;1.57;1.40;;;8.10;99.90;;;;;;5062282;28;20761;-91
2021/05/25 02:27:41;;;;;;;4.27;1.57;;;8.10;99.90;;;;;;5068029;28;21194;-91
2021/05/25 02:30:08;;;;;;;3.17;1.77;;;8.10;99.90;;;;;;5064613;28;20635;-92
2021/05/25 02:32:36;;;;;;;1.97;1.40;;;8.00;99.90;;;;;;5066958;28;20625;-92
2021/05/25 02:35:05;;;;;;;2.90;1.17;;;8.00;99.90;;;;;;5047667;28;20634;-90
2021/05/25 02:37:34;;;;;;;2.63;1.10;;;7.90;99.90;;;;;;5062993;28;21040;-91
2021/05/25 02:40:01;;;;;;;2.03;1.27;;;7.90;99.90;;;;;;5068400;28;20596;-91
2021/05/25 02:42:30;;;;;;;2.77;1.40;;;7.90;99.90;;;;;;5063151;28;20701;-91
2021/05/25 02:44:58;;;;;;;1.60;1.33;;;7.90;99.90;;;;;;5066822;28;20990;-92
2021/05/25 02:47:24;;;;;;;3.00;1.00;;;7.90;99.90;;;;;;5063308;28;20655;-93
2021/05/25 02:49:51;;;;;;;2.10;1.37;;;7.90;99.90;;;;;;5065309;28;20629;-91
2021/05/25 02:52:17;;;;;;;4.37;1.00;;;7.80;99.90;;;;;;5065203;28;20597;-91
2021/05/25 02:54:44;;;;;;;5.90;1.10;;;7.90;99.90;;;;;;5047427;28;20613;-92
2021/05/25 02:57:10;;;;;;;1.87;1.23;;;7.90;99.90;;;;;;5064841;28;20657;-92
2021/05/25 02:59:37;;;;;;;3.97;1.13;;;7.80;99.90;;;;;;5065838;28;21155;-92
2021/05/25 03:02:06;;;;;;;1.20;1.03;;;7.80;99.90;;;;;;5064987;28;21063;-93
2021/05/25 03:04:40;;;;;;;2.27;0.87;;;7.90;99.90;;;;;;5045273;28;21009;-92
2021/05/25 03:07:06;;;;;;;3.47;1.20;;;7.90;99.90;;;;;;5062842;28;20649;-92
2021/05/25 03:09:35;;;;;;;4.83;1.10;;;7.90;99.90;;;;;;5045911;28;20985;-90
2021/05/25 03:12:01;;;;;;;1.77;1.00;;;7.90;99.90;;;;;;5064035;28;20637;-91
2021/05/25 03:14:27;;;;;;;2.77;0.87;;;8.10;99.90;;;;;;5063552;28;20632;-90
2021/05/25 03:16:54;;;;;;;5.47;1.10;;;8.20;99.90;;;;;;5045939;28;20651;-91
2021/05/25 03:19:21;;;;;;;5.53;1.10;;;8.20;99.90;;;;;;5047429;28;20610;-92
2021/05/25 03:21:51;;;;;;;2.43;1.13;;;8.20;99.90;;;;;;5066264;28;20629;-93
2021/05/25 03:24:18;;;;;;;2.70;1.27;;;8.30;99.90;;;;;;5064005;28;20660;-90
2021/05/25 03:26:44;;;;;;;1.67;1.10;;;8.30;99.90;;;;;;5069090;28;20660;-90
2021/05/25 03:29:12;;;;;;;4.33;1.20;;;8.40;99.90;;;;;;5067155;28;20613;-92
2021/05/25 03:31:40;;;;;;;1.93;1.20;;;8.30;99.90;;;;;;5050589;28;20628;-92
2021/05/25 03:34:07;;;;;;;3.03;1.10;;;8.20;99.90;;;;;;5068151;28;20633;-93
2021/05/25 03:36:36;;;;;;;1.63;1.00;;;8.20;99.90;;;;;;5063182;28;20659;-92
2021/05/25 03:39:04;;;;;;;3.37;1.10;;;8.20;99.90;;;;;;5049006;28;20988;-92
2021/05/25 03:41:31;;;;;;;2.03;1.10;;;8.10;99.90;;;;;;5066482;28;20638;-93
2021/05/25 03:43:59;;;;;;;2.57;1.33;;;8.10;99.90;;;;;;5048219;28;20720;-91
2021/05/25 03:46:25;;;;;;;2.03;1.10;;;7.90;99.90;;;;;;5065993;28;20823;-92
2021/05/25 03:48:52;;;;;;;1.87;1.20;;;7.80;99.90;;;;;;5075825;28;20636;-92
2021/05/25 03:51:18;;;;;;;1.37;1.00;;;7.80;99.90;;;;;;5080219;28;20651;-91
2021/05/25 03:53:45;;;;;;;2.87;1.47;;;7.70;99.90;;;;;;5055694;28;20619;-91
2021/05/25 03:56:25;;;;;;;4.30;1.40;;;7.60;99.90;;;;;;5068540;28;20751;-91
2021/05/25 03:58:51;;;;;;;3.27;1.37;;;7.60;99.90;;;;;;5081736;28;20700;-94
2021/05/25 04:01:26;;;;;;;2.20;1.10;;;7.50;99.90;;;;;;5077357;28;20730;-93
2021/05/25 04:03:54;;;;;;;2.23;1.40;;;7.60;99.90;;;;;;5050273;28;20657;-93
2021/05/25 04:06:26;;;;;;;2.43;1.07;;;7.50;99.90;;;;;;5073910;28;20671;-92
2021/05/25 04:08:54;;;;;;;2.40;1.40;;;7.50;99.90;;;;;;5042083;28;20614;-93
2021/05/25 04:11:20;;;;;;;1.40;1.00;;;7.60;99.90;;;;;;5048810;28;20630;-94
2021/05/25 04:13:47;;;;;;;1.60;1.20;;;7.60;99.90;;;;;;5065277;28;20655;-93
2021/05/25 04:16:16;;;;;;;3.90;1.20;;;7.60;99.90;;;;;;5064785;28;20746;-93
2021/05/25 04:18:48;;;;;;;2.30;1.37;;;7.60;99.90;;;;;;5063507;28;20633;-93
2021/05/25 04:21:17;;;;;;;2.13;1.10;;;7.60;99.90;;;;;;5075627;28;20667;-93
2021/05/25 04:23:44;;;;;;;2.37;1.90;;;7.60;99.90;;;;;;5087965;28;20659;-94
2021/05/25 04:26:12;;;;;;;3.23;1.00;;;7.60;99.90;;;;;;5082310;28;20745;-93
2021/05/25 04:28:39;;;;;;;1.47;0.87;;;7.70;99.90;;;;;;5086766;28;20611;-93
2021/05/25 04:31:12;;;;;;;2.37;1.17;;;7.90;99.90;;;;;;5078607;28;20630;-92
2021/05/25 04:33:45;;;;;;;2.17;0.97;;;8.00;99.90;;;;;;5064044;28;20728;-92
2021/05/25 04:36:17;;;;;;;1.80;0.80;;;8.10;99.90;;;;;;5064620;28;20663;-93
2021/05/25 04:38:47;;;;;;;2.03;0.73;;;8.30;99.90;;;;;;5065542;28;20652;-93
2021/05/25 04:41:14;;;;;;;2.93;0.63;;;8.40;99.90;;;;;;5066822;28;20659;-93
2021/05/25 04:43:42;;;;;;;1.63;0.60;;;8.50;99.90;;;;;;5068211;28;20657;-94
2021/05/25 04:46:12;;;;;;;1.23;0.50;;;8.60;99.90;;;;;;5047185;28;20653;-94
2021/05/25 04:48:47;;;;;;;2.37;0.67;;;8.60;99.90;;;;;;5066423;28;20625;-93
2021/05/25 04:51:13;;;;;;;1.00;0.50;;;8.70;99.90;;;;;;5046575;28;20640;-92
2021/05/25 04:53:40;;;;;;;1.33;0.70;;;8.80;99.90;;;;;;5066625;28;20637;-92
2021/05/25 04:56:08;;;;;;;1.20;0.57;;;8.80;99.90;;;;;;5065809;28;20653;-91
2021/05/25 04:58:43;;;;;;;1.93;0.50;;;8.90;99.90;;;;;;5061275;28;20593;-92
2021/05/25 05:01:19;;;;;;;1.03;0.60;;;9.10;99.90;;;;;;5061620;28;20632;-92
2021/05/25 05:03:47;;;;;;;1.47;0.70;;;9.10;99.90;;;;;;5064092;28;20654;-91
2021/05/25 05:06:13;;;;;;;2.00;0.77;;;9.20;99.90;;;;;;5064913;28;20912;-92
2021/05/25 05:08:43;;;;;;;1.10;0.80;;;9.40;99.90;;;;;;5064398;28;20682;-92
2021/05/25 05:11:11;;;;;;;1.23;0.80;;;9.40;99.90;;;;;;5076864;28;20640;-93
2021/05/25 05:13:39;;;;;;;2.97;0.50;;;9.40;99.90;;;;;;5054507;28;20669;-93
2021/05/25 05:16:11;;;;;;;1.00;0.57;;;9.40;99.90;;;;;;5055096;28;20644;-91
2021/05/25 05:18:46;;;;;;;2.10;0.70;;;9.50;99.90;;;;;;5082787;28;20643;-95
2021/05/25 05:24:32;;;;;;;3.90;1.30;;;9.60;99.90;;;;;;5080276;28;20733;-94
2021/05/25 05:27:00;;;;;;;1.13;0.83;;;9.60;99.90;;;;;;5066392;28;20614;-95
2021/05/25 05:29:32;;;;;;;2.60;0.90;;;9.70;99.90;;;;;;5080779;28;20617;-94
2021/05/25 05:32:04;;;;;;;1.77;0.53;;;9.70;99.90;;;;;;5067506;28;20605;-94
2021/05/25 05:34:54;;;;;;;2.53;1.17;;;9.70;99.90;;;;;;5084876;28;20629;-96
2021/05/25 05:37:22;;;;;;;2.43;1.10;;;9.70;99.90;;;;;;5065016;28;20712;-96
2021/05/25 05:39:51;;;;;;;2.10;1.67;;;9.70;99.90;;;;;;5078393;28;20651;-95
2021/05/25 05:45:14;;;;;;;2.17;1.00;;;9.90;99.90;;;;;;5081586;28;20612;-94
2021/05/25 05:48:06;;;;;;;2.10;1.53;;;9.80;99.90;;;;;;5081868;28;20644;-94
2021/05/25 05:51:07;;;;;;;3.37;1.47;;;9.80;99.90;;;;;;5072029;28;20629;-93
2021/05/25 05:53:34;;;;;;;1.10;0.57;;;9.80;99.90;;;;;;5088276;28;20715;-96
2021/05/25 05:56:06;;;;;;;2.20;0.80;;;9.80;99.90;;;;;;5097105;28;20629;-95
2021/05/25 05:58:33;;;;;;;4.07;0.70;;;10.00;99.90;;;;;;5079372;28;20593;-95
2021/05/25 06:01:10;;;;;;;3.20;0.93;;;9.90;99.90;;;;;;5068284;28;20708;-94
2021/05/25 06:03:46;;;;;;;3.40;1.20;;;10.00;99.90;;;;;;5078348;28;20704;-93
2021/05/25 06:06:14;;;;;;;2.10;0.70;;;10.20;99.90;;;;;;5071491;28;20680;-94
2021/05/25 06:08:42;;;;;;;2.20;0.50;;;10.40;99.90;;;;;;5065457;28;20626;-94
2021/05/25 06:11:10;;;;;;;1.47;0.57;;;10.50;99.90;;;;;;5069779;28;20668;-94
2021/05/25 06:13:37;;;;;;;1.97;0.67;;;10.60;99.90;;;;;;5065574;28;20649;-93
2021/05/25 06:16:06;;;;;;;1.80;0.70;;;10.70;99.90;;;;;;5063392;28;21022;-93
2021/05/25 06:18:40;;;;;;;2.60;0.70;;;10.70;99.90;;;;;;5064410;28;21688;-95
2021/05/25 06:21:08;;;;;;;4.57;0.80;;;10.60;99.90;;;;;;5071943;28;20641;-95
2021/05/25 06:23:35;;;;;;;1.43;0.60;;;10.60;99.90;;;;;;5076343;28;20665;-94
2021/05/25 06:26:02;;;;;;;1.30;0.80;;;10.70;99.90;;;;;;5074917;28;20636;-95
2021/05/25 06:28:31;;;;;;;2.40;0.70;;;10.70;99.90;;;;;;5069383;28;20628;-96
2021/05/25 06:30:58;;;;;;;1.13;0.60;;;10.90;99.90;;;;;;5087090;28;20676;-94
2021/05/25 06:36:34;;;;;;;1.87;0.87;;;10.90;99.90;;;;;;5081972;28;20662;-94
2021/05/25 06:39:07;;;;;;;1.30;0.53;;;11.10;99.90;;;;;;5083232;28;20644;-93
2021/05/25 06:41:38;;;;;;;6.30;1.20;;;11.00;99.90;;;;;;5068363;28;20705;-95
2021/05/25 06:44:06;;;;;;;5.30;0.90;;;11.20;99.90;;;;;;5077415;28;21043;-94
2021/05/25 06:46:38;;;;;;;1.30;0.70;;;11.20;99.90;;;;;;5069590;28;20703;-92
2021/05/25 06:49:05;;;;;;;2.23;0.77;;;11.30;99.90;;;;;;5067857;28;20961;-92
2021/05/25 06:51:31;;;;;;;1.40;0.60;;;11.40;99.90;;;;;;5070066;28;20737;-92
2021/05/25 06:54:03;;;;;;;2.80;0.80;;;11.50;99.90;;;;;;5062323;28;20669;-92
2021/05/25 06:56:29;;;;;;;2.30;0.60;;;11.60;99.90;;;;;;5071813;28;20702;-90
2021/05/25 06:58:56;;;;;;;1.60;0.50;;;11.80;99.90;;;;;;5068525;28;21130;-92
2021/05/25 07:01:23;;;;;;;2.37;0.80;;;11.80;99.90;;;;;;5069941;28;20658;-92
2021/05/25 07:03:51;;;;;;;1.33;0.50;;;11.70;99.90;;;;;;5067937;28;20676;-91
2021/05/25 07:06:19;;;;;;;1.87;0.80;;;11.80;99.90;;;;;;5062709;28;20641;-90
2021/05/25 07:08:46;;;;;;;4.50;0.90;;;11.70;99.90;;;;;;5063445;28;20621;-90
2021/05/25 07:11:14;;;;;;;1.60;0.67;;;11.80;99.90;;;;;;5067293;28;20617;-93
2021/05/25 07:13:48;;;;;;;1.50;0.67;;;11.70;99.90;;;;;;5061916;28;20772;-92
2021/05/25 07:16:15;;;;;;;1.67;0.60;;;11.50;99.90;;;;;;5065149;28;20940;-92
2021/05/25 07:18:43;;;;;;;2.30;0.70;;;11.60;99.90;;;;;;5061187;28;20635;-94
2021/05/25 07:21:10;;;;;;;2.43;0.70;;;11.70;99.90;;;;;;5085157;28;20632;-94
2021/05/25 07:23:36;;;;;;;1.90;0.80;;;11.80;99.90;;;;;;5079713;28;20657;-93
2021/05/25 07:26:04;;;;;;;2.10;0.73;;;11.90;99.90;;;;;;5062471;28;20633;-93
2021/05/25 07:28:32;;;;;;;3.10;1.13;;;12.10;99.70;;;;;;5071122;28;21177;-92
2021/05/25 07:31:00;;;;;;;2.90;0.80;;;12.20;99.60;;;;;;5073835;28;20679;-93
2021/05/25 07:33:27;;;;;;;1.63;0.80;;;12.40;99.90;;;;;;5064843;28;20614;-92
2021/05/25 07:35:53;;;;;;;1.20;0.60;;;12.50;99.00;;;;;;5064590;28;21058;-92
2021/05/25 07:38:20;;;;;;;1.33;0.70;;;12.70;98.60;;;;;;5065444;28;20609;-90
2021/05/25 07:40:46;;;;;;;1.83;0.77;;;12.90;98.50;;;;;;5063494;28;20641;-92
2021/05/25 07:43:13;;;;;;;1.67;1.00;;;13.00;97.70;;;;;;5060784;28;21215;-91
2021/05/25 07:45:42;;;;;;;4.13;0.63;;;13.10;97.90;;;;;;5060476;28;20599;-93
2021/05/25 07:48:09;;;;;;;1.00;0.63;;;12.90;97.10;;;;;;5060079;28;20613;-91
2021/05/25 07:50:38;;;;;;;0.83;0.53;;;12.60;97.20;;;;;;5061571;28;20653;-92
2021/05/25 07:53:05;;;;;;;2.23;0.67;;;12.30;97.10;;;;;;5064919;28;20621;-92
2021/05/25 07:55:34;;;;;;;1.50;0.60;;;12.30;96.50;;;;;;5056803;28;20621;-92
2021/05/25 07:58:01;;;;;;;2.80;0.60;;;12.40;96.30;;;;;;5084685;28;20632;-92
2021/05/25 08:00:30;;;;;;;2.53;1.40;;;12.50;96.30;;;;;;5084481;28;20625;-93
2021/05/25 08:02:57;;;;;;;5.93;0.93;;;12.40;96.00;;;;;;5080650;28;20636;-92
2021/05/25 08:05:27;;;;;;;2.10;0.80;;;12.50;96.10;;;;;;5079384;28;20624;-92
2021/05/25 08:07:54;;;;;;;1.70;0.73;;;12.60;96.80;;;;;;5076311;28;20657;-91
2021/05/25 08:10:21;;;;;;;3.90;1.50;;;12.70;95.90;;;;;;5075257;28;20618;-92
2021/05/25 08:12:49;;;;;;;1.33;0.90;;;12.80;95.70;;;;;;5069199;28;20923;-92
2021/05/25 08:15:19;;;;;;;2.80;0.60;;;12.60;95.10;;;;;;5059274;28;20638;-92
2021/05/25 08:17:55;;;;;;;2.17;0.70;;;12.70;95.40;;;;;;5062602;28;20637;-91
2021/05/25 08:20:23;;;;;;;2.13;0.70;;;12.60;95.40;;;;;;5057190;28;20677;-92
2021/05/25 08:22:53;;;;;;;2.90;0.70;;;12.60;95.00;;;;;;5058015;28;20695;-93
2021/05/25 08:25:23;;;;;;;2.03;0.90;;;12.60;95.10;;;;;;5063888;28;20630;-93
2021/05/25 08:27:50;;;;;;;1.77;0.97;;;12.70;95.00;;;;;;5062633;28;20676;-92
2021/05/25 08:30:19;;;;;;;8.10;1.20;;;12.60;94.60;;;;;;5062037;28;20762;-91
2021/05/25 08:32:48;;;;;;;3.17;0.90;;;12.80;94.30;;;;;;5062137;28;20654;-92
2021/05/25 08:35:14;;;;;;;1.53;0.70;;;12.80;93.90;;;;;;5061374;28;20629;-93
2021/05/25 08:37:42;;;;;;;1.43;0.90;;;12.90;93.90;;;;;;5060777;28;20641;-94
2021/05/25 08:40:10;;;;;;;1.50;0.70;;;12.80;93.80;;;;;;5067375;28;20654;-93
2021/05/25 08:42:40;;;;;;;0.80;0.70;;;12.70;93.90;;;;;;5074609;28;20641;-93
2021/05/25 08:45:10;;;;;;;2.60;0.90;;;12.80;94.00;;;;;;5068987;28;20640;-93
2021/05/25 08:47:39;;;;;;;1.93;0.77;;;12.80;93.20;;;;;;5070594;28;20747;-93
2021/05/25 08:50:14;;;;;;;3.47;1.07;;;12.70;93.70;;;;;;5073043;28;20625;-94
2021/05/25 08:55:46;;;;;;;0.73;0.50;;;12.60;93.40;;;;;;5073060;28;20636;-94
2021/05/25 08:58:13;;;;;;;1.00;0.90;;;12.70;93.90;;;;;;5071458;28;20641;-95
2021/05/25 09:00:40;;;;;;;1.10;0.50;;;12.80;94.20;;;;;;5070153;28;20620;-94
2021/05/25 09:03:06;;;;;;;2.40;0.70;;;12.90;93.50;;;;;;5062614;28;21207;-93
2021/05/25 09:05:37;;;;;;;4.37;0.80;;;12.90;94.00;;;;;;5062453;28;20628;-93
2021/05/25 09:08:06;;;;;;;2.20;0.70;;;12.90;94.20;;;;;;5062125;28;20621;-94
2021/05/25 09:10:38;;;;;;;1.77;0.70;;;12.90;93.90;;;;;;5065287;28;20652;-95
2021/05/25 09:13:12;;;;;;;6.67;0.80;;;12.70;93.30;;;;;;5066413;28;21059;-94
2021/05/25 09:15:42;;;;;;;1.07;0.50;;;12.80;93.70;;;;;;5071871;28;20639;-94
2021/05/25 09:18:12;;;;;;;1.00;0.50;;;12.80;93.60;;;;;;5080587;28;20645;-93
2021/05/25 09:20:43;;;;;;;2.60;1.50;;;12.80;94.00;;;;;;5079631;28;20638;-94
2021/05/25 09:23:12;;;;;;;2.57;0.73;;;12.90;93.90;;;;;;5081221;28;20670;-93
2021/05/25 09:25:51;;;;;;;3.47;0.80;;;12.90;94.00;;;;;;5082480;28;20633;-93
2021/05/25 09:28:18;;;;;;;1.17;0.43;;;12.80;93.90;;;;;;5087522;28;20651;-93
2021/05/25 09:30:47;;;;;;;1.10;0.47;;;12.80;93.70;;;;;;5085594;28;20621;-93
2021/05/25 09:33:14;;;;;;;1.27;0.53;;;12.80;93.90;;;;;;5089959;28;21045;-93
2021/05/25 09:35:41;;;;;;;0.80;0.53;;;12.90;93.80;;;;;;5087174;28;20609;-93
2021/05/25 09:38:09;;;;;;;1.17;0.83;;;12.90;94.00;;;;;;5089320;28;20634;-93
2021/05/25 09:40:38;;;;;;;2.10;1.40;;;13.20;94.10;;;;;;5090727;28;20872;-95
2021/05/25 09:43:16;;;;;;;2.17;0.80;;;13.00;93.30;;;;;;5084901;28;20657;-94
2021/05/25 09:45:57;;;;;;;1.10;0.60;;;12.90;93.80;;;;;;5087864;28;20627;-93
2021/05/25 09:48:27;;;;;;;3.17;1.00;;;13.00;93.60;;;;;;5091151;28;20684;-94
2021/05/25 09:50:54;;;;;;;1.23;0.93;;;13.40;93.90;;;;;;5087232;28;20664;-93
2021/05/25 09:53:21;;;;;;;1.43;1.17;;;13.50;93.40;;;;;;5091130;28;20689;-94
2021/05/25 09:55:59;;;;;;;1.13;0.60;;;13.50;94.00;;;;;;5091554;28;20601;-94
2021/05/25 09:58:38;;;;;;;1.57;0.87;;;13.40;93.20;;;;;;5087756;28;20645;-93
2021/05/25 10:01:08;;;;;;;1.20;0.70;;;13.20;93.40;;;;;;5088282;28;20645;-94
2021/05/25 10:03:43;;;;;;;2.13;0.60;;;13.20;93.50;;;;;;5086960;28;20652;-95
2021/05/25 10:06:10;;;;;;;1.70;0.63;;;13.30;93.70;;;;;;5086258;28;20643;-94
2021/05/25 10:08:37;;;;;;;2.70;0.80;;;13.30;94.10;;;;;;5086963;28;20661;-94
2021/05/25 10:11:07;;;;;;;1.60;0.70;;;13.20;93.20;;;;;;5088618;28;20673;-93
2021/05/25 10:13:37;;;;;;;2.00;0.70;;;13.40;93.10;;;;;;5086285;28;20613;-94
2021/05/25 10:16:05;;;;;;;1.43;0.67;;;13.30;93.10;;;;;;5078021;28;20648;-91
2021/05/25 10:18:38;;;;;;;1.03;0.60;;;13.80;92.10;;;;;;5078964;28;20695;-91
2021/05/25 10:21:08;;;;;;;3.30;0.97;;;13.90;91.30;;;;;;5081868;28;20649;-92
2021/05/25 10:23:37;;;;;;;4.73;1.17;;;14.30;90.10;;;;;;5080327;28;20713;-92
2021/05/25 10:26:09;;;;;;;2.97;0.80;;;14.00;89.80;;;;;;5077760;28;20662;-91
2021/05/25 10:28:39;;;;;;;5.57;1.70;;;14.10;89.60;;;;;;5078552;28;20613;-90
2021/05/25 10:31:25;;;;;;;2.00;0.90;;;13.90;91.10;;;;;;5074720;28;20676;-92
2021/05/25 10:34:16;;;;;;;3.00;0.97;;;14.70;90.70;;;;;;5077993;28;20628;-92
2021/05/25 10:36:49;;;;;;;1.63;0.80;;;15.00;89.10;;;;;;5078260;28;20615;-89
2021/05/25 10:39:35;;;;;;;3.80;0.83;;;15.80;87.10;;;;;;5084456;28;20743;-90
2021/05/25 10:42:38;;;;;;;2.20;0.73;;;15.60;84.40;;;;;;5081283;28;20719;-90
2021/05/25 10:45:16;;;;;;;2.67;1.37;;;15.80;83.70;;;;;;5083003;28;20635;-90
2021/05/25 10:47:58;;;;;;;2.57;1.10;;;15.00;82.30;;;;;;5072456;28;20616;-89
2021/05/25 10:50:32;;;;;;;1.80;0.83;;;15.00;82.20;;;;;;5074142;28;20648;-89
2021/05/25 10:53:27;;;;;;;2.67;0.83;;;14.80;83.00;;;;;;5081272;28;20593;-91
2021/05/25 10:55:55;;;;;;;3.17;0.93;;;14.80;83.80;;;;;;5034148;28;20646;-90
2021/05/25 10:58:31;;;;;;;1.13;0.60;;;14.30;86.70;;;;;;5079780;28;20628;-91
2021/05/25 11:00:59;;;;;;;2.97;0.90;;;14.20;87.20;;;;;;5072719;28;20672;-90
2021/05/25 11:03:26;;;;;;;1.17;1.03;;;14.00;89.00;;;;;;5071617;28;21294;-92
2021/05/25 11:05:55;;;;;;;1.97;1.13;;;14.10;90.10;;;;;;5069756;28;20617;-92
2021/05/25 11:08:36;;;;;;;1.10;0.60;;;14.10;90.30;;;;;;5065848;28;21005;-91
2021/05/25 11:11:14;;;;;;;2.60;0.90;;;14.10;90.50;;;;;;5046470;28;20658;-91
2021/05/25 11:13:51;;;;;;;3.93;0.90;;;14.40;90.90;;;;;;5044132;28;20629;-93
2021/05/25 11:16:32;;;;;;;2.23;1.13;;;14.50;90.50;;;;;;5062846;28;20621;-91
2021/05/25 11:19:55;;;;;;;2.80;0.90;;;14.20;90.60;;;;;;5062528;28;21190;-91
2021/05/25 11:22:36;;;;;;;2.20;0.93;;;13.90;91.30;;;;;;5072035;28;20640;-89
2021/05/25 11:25:06;;;;;;;2.27;1.30;;;13.80;91.20;;;;;;5081557;28;20702;-89
2021/05/25 11:27:41;;;;;;;2.07;1.23;;;13.70;91.70;;;;;;5079813;28;20618;-90
2021/05/25 11:30:14;;;;;;;3.37;0.80;;;13.60;94.20;;;;;;5075154;28;20681;-91
2021/05/25 11:32:46;;;;;;;4.20;0.90;;;13.20;99.20;;;;;;5078142;28;21328;-94
2021/05/25 11:35:14;;;;;;;2.50;0.83;;;12.30;99.90;;;;;;5083870;28;20649;-90
2021/05/25 11:37:43;;;;;;;2.00;0.87;;;12.10;99.90;;;;;;5076936;28;20632;-92
2021/05/25 11:40:12;;;;;;;2.00;1.10;;;11.90;99.90;;;;;;5073881;28;20626;-93
2021/05/25 11:42:42;;;;;;;2.10;0.80;;;12.40;99.90;;;;;;5053123;28;20644;-92
2021/05/25 11:45:11;;;;;;;2.53;1.13;;;13.30;99.90;;;;;;5062967;28;20720;-92
2021/05/25 11:47:39;;;;;;;1.80;0.83;;;13.80;99.90;;;;;;5056919;28;20611;-91
2021/05/25 11:50:09;;;;;;;2.30;0.70;;;14.50;99.90;;;;;;5065284;28;20621;-91
2021/05/25 11:52:39;;;;;;;1.50;0.63;;;15.20;98.90;;;;;;5062602;28;20710;-92
2021/05/25 11:55:10;;;;;;;1.53;0.73;;;15.90;96.70;;;;;;5060856;28;20644;-91
2021/05/25 11:57:45;;;;;;;1.20;0.50;;;15.90;96.80;;;;;;5059605;28;20723;-91
2021/05/25 12:00:18;;;;;;;2.00;0.83;;;15.30;94.50;;;;;;5060534;28;20636;-91
2021/05/25 12:02:46;;;;;;;1.53;0.57;;;14.60;95.90;;;;;;5058342;28;20678;-92
2021/05/25 12:05:18;;;;;;;4.00;1.07;;;14.30;94.10;;;;;;5058984;28;20705;-92
2021/05/25 12:07:46;;;;;;;3.70;0.70;;;15.60;94.10;;;;;;5059677;28;20641;-88
2021/05/25 12:10:15;;;;;;;2.37;0.70;;;16.30;90.80;;;;;;5050076;28;20628;-89
2021/05/25 12:12:43;;;;;;;2.93;0.60;;;16.80;89.20;;;;;;5050917;28;20662;-88
2021/05/25 12:15:16;;;;;;;2.07;1.17;;;17.00;85.60;;;;;;5057972;28;20629;-91
2021/05/25 12:17:44;;;;;;;3.03;0.97;;;17.30;81.90;;;;;;5057309;28;20641;-91
2021/05/25 12:20:17;;;;;;;1.40;1.10;;;17.40;81.10;;;;;;5056517;28;20613;-90
2021/05/25 12:22:44;;;;;;;2.57;1.30;;;17.00;81.50;;;;;;5058605;28;20657;-91
2021/05/25 12:25:29;;;;;;;2.07;0.93;;;17.40;82.10;;;;;;5058773;28;20699;-91
2021/05/25 12:28:05;;;;;;;2.20;0.57;;;17.00;81.30;;;;;;5054932;28;21074;-89
2021/05/25 12:30:33;;;;;;;2.83;0.80;;;17.90;79.70;;;;;;5053675;28;20704;-91
2021/05/25 12:33:00;;;;;;;2.00;1.10;;;18.20;73.20;;;;;;5057262;28;20637;-93
2021/05/25 12:35:28;;;;;;;4.13;0.73;;;19.00;70.50;;;;;;5056898;28;20662;-90
2021/05/25 12:38:06;;;;;;;2.57;0.90;;;18.10;68.30;;;;;;5059179;28;20672;-89
2021/05/25 12:40:33;;;;;;;3.13;1.10;;;17.70;69.30;;;;;;5058460;28;20638;-89
2021/05/25 12:43:13;;;;;;;2.40;0.70;;;16.90;71.90;;;;;;5059447;28;20644;-88
2021/05/25 12:45:43;;;;;;;1.00;0.60;;;16.40;74.00;;;;;;5059118;28;20688;-90
2021/05/25 12:48:10;;;;;;;1.00;0.60;;;16.30;75.20;;;;;;5058480;28;21491;-89
2021/05/25 12:50:41;;;;;;;2.33;1.00;;;15.70;72.50;;;;;;5054397;28;20733;-89
2021/05/25 12:53:10;;;;;;;1.30;0.80;;;15.50;74.80;;;;;;5057320;28;20741;-88
2021/05/25 12:55:58;;;;;;;1.20;0.70;;;15.50;75.20;;;;;;5056574;28;21069;-89
2021/05/25 12:58:39;;;;;;;1.50;0.60;;;15.50;76.30;;;;;;5060619;28;20628;-90
2021/05/25 13:01:31;;;;;;;1.30;0.80;;;16.30;81.40;;;;;;5058265;28;20659;-89
2021/05/25 13:04:25;;;;;;;1.23;0.50;;;17.00;76.50;;;;;;5057260;28;20681;-89
2021/05/25 13:06:55;;;;;;;1.77;1.03;;;17.00;76.60;;;;;;5056248;28;20637;-89
2021/05/25 13:09:27;;;;;;;1.50;0.90;;;17.50;73.00;;;;;;5042892;28;20629;-88
2021/05/25 13:12:00;;;;;;;1.63;0.77;;;18.00;71.60;;;;;;5060353;28;20723;-89
2021/05/25 13:14:29;;;;;;;1.20;0.60;;;18.70;68.30;;;;;;5058475;28;20625;-89
2021/05/25 13:17:00;;;;;;;2.70;0.50;;;19.60;66.60;;;;;;5058548;28;21153;-91
2021/05/25 13:19:34;;;;;;;2.93;0.80;;;19.90;60.20;;;;;;5054470;28;20633;-89